| Date | Time | Temp. (oF) | Dew Point (oF) | Rel. Hum. (%) | Press. (in.) | Wind Dir. | Wind Speed (mph) | Hourly Rainfall (in.) |
|
|---|---|---|---|---|---|---|---|---|---|
| 1 | 11/26 | 00:00 | 40 | 34 | 82 | 29.74 | SE | 3 | 0.00 |
| 2 | 11/25 | 23:00 | 39 | 35 | 86 | 29.79 | E | 3 | 0.00 |
| 3 | 11/25 | 22:00 | 38 | 34 | 86 | 29.84 | ENE | 2 | 0.00 |
| 4 | 11/25 | 21:00 | 37 | 33 | 86 | 29.87 | SSE | 6 | 0.00 |
| 5 | 11/25 | 20:00 | 36 | 32 | 86 | 29.92 | SSE | 4 | 0.00 |
| 6 | 11/25 | 19:00 | 36 | 33 | 91 | 29.97 | E | 2 | 0.01 |
| 7 | 11/25 | 18:00 | 36 | 34 | 94 | 30.01 | ESE | 3 | 0.03 |
| 8 | 11/25 | 17:00 | 36 | 35 | 97 | 30.03 | ESE | 4 | 0.00 |
| 9 | 11/25 | 16:00 | 36 | 36 | 100 | 30.04 | SW | 1 | 0.00 |
| 10 | 11/25 | 15:00 | 36 | 36 | 100 | 30.05 | SE | 3 | 0.00 |
| 11 | 11/25 | 14:00 | 36 | 35 | 97 | 30.07 | S | 4 | 0.00 |
| 12 | 11/25 | 13:00 | 35 | 33 | 96 | 30.12 | SSE | 5 | 0.04 |
| 13 | 11/25 | 12:00 | 36 | 36 | 100 | 30.16 | SSE | 5 | 0.08 |
| 14 | 11/25 | 11:00 | 37 | 36 | 100 | 30.19 | SSW | 3 | 0.03 |
| 15 | 11/25 | 10:00 | 38 | 37 | 100 | 30.22 | SSW | 2 | 0.01 |
| 16 | 11/25 | 09:00 | 37 | 36 | 100 | 30.22 | SSW | 1 | 0.05 |
| 17 | 11/25 | 08:00 | 39 | 32 | 78 | 30.21 | SW | 2 | 0.00 |
| 18 | 11/25 | 07:00 | 39 | 29 | 68 | 30.19 | S | 3 | 0.00 |
| 19 | 11/25 | 06:00 | 39 | 28 | 67 | 30.20 | SSW | 1 | 0.00 |
| 20 | 11/25 | 05:00 | 39 | 33 | 81 | 30.19 | E | 3 | 0.00 |
| 21 | 11/25 | 04:00 | 39 | 35 | 86 | 30.21 | ENE | 5 | 0.00 |
| 22 | 11/25 | 03:00 | 40 | 30 | 70 | 30.24 | NNW | 2 | 0.00 |
| 23 | 11/25 | 02:00 | 39 | 32 | 78 | 30.26 | W | 1 | 0.00 |
| 24 | 11/25 | 01:00 | 39 | 33 | 79 | 30.26 | SSW | 1 | 0.00 |